Time;durP1;ratioP1;P1;durP2;ratioP2;P2;SDS_P1;SDS_P2;PMS_P1;PMS_P2;Temp;Humidity;BMP_temperature;BMP_pressure;BME280_temperature;BME280_humidity;BME280_pressure;Samples;Min_cycle;Max_cycle;Signal;HPM_P1;HPM_P2
2021/11/12 00:03:02;;;;;;;38.25;29.10;;;8.90;81.60;;;;;;5013916;28;20679;-92
2021/11/12 00:13:46;;;;;;;37.45;29.05;;;8.90;81.60;;;;;;5018933;28;20092;-95
2021/11/12 00:16:13;;;;;;;34.75;28.50;;;8.80;81.60;;;;;;5015379;28;20112;-94
2021/11/12 00:18:42;;;;;;;35.17;29.25;;;8.80;81.60;;;;;;5015347;28;20060;-93
2021/11/12 00:21:09;;;;;;;38.97;30.20;;;8.70;81.60;;;;;;5015070;28;20112;-92
2021/11/12 00:23:40;;;;;;;36.35;29.52;;;8.70;81.60;;;;;;5015039;28;20050;-94
2021/11/12 00:26:07;;;;;;;39.70;29.55;;;8.70;81.50;;;;;;5027074;28;20092;-93
2021/11/12 00:28:47;;;;;;;36.70;30.77;;;8.60;81.50;;;;;;5035097;28;20056;-92
2021/11/12 00:39:02;;;;;;;40.20;31.00;;;8.40;81.50;;;;;;5006048;28;20100;-93
2021/11/12 00:49:14;;;;;;;36.70;30.63;;;8.30;81.40;;;;;;5014566;28;20054;-93
2021/11/12 00:51:52;;;;;;;38.25;31.58;;;8.20;81.30;;;;;;5015347;28;20050;-93
2021/11/12 00:54:20;;;;;;;38.75;31.95;;;8.20;81.40;;;;;;5034432;28;20072;-93
2021/11/12 00:56:49;;;;;;;34.70;29.75;;;8.20;81.40;;;;;;5015199;28;20050;-92
2021/11/12 00:59:17;;;;;;;38.67;31.13;;;8.10;81.40;;;;;;5027094;28;20486;-92
2021/11/12 01:01:45;;;;;;;43.15;31.77;;;8.00;81.40;;;;;;5028074;28;20462;-93
2021/11/12 01:04:16;;;;;;;36.85;31.20;;;8.00;81.40;;;;;;5014468;28;20058;-93
2021/11/12 01:06:44;;;;;;;40.75;31.42;;;8.00;81.40;;;;;;5013462;28;20046;-93
2021/11/12 01:09:15;;;;;;;38.72;31.05;;;8.00;81.50;;;;;;5014273;28;20061;-94
2021/11/12 01:11:45;;;;;;;34.95;30.25;;;7.90;81.50;;;;;;5013094;28;20056;-93
2021/11/12 01:14:14;;;;;;;41.83;31.70;;;7.90;81.50;;;;;;5014342;28;20046;-92
2021/11/12 01:16:41;;;;;;;39.92;31.92;;;7.90;81.50;;;;;;5014263;28;20053;-94
2021/11/12 01:19:09;;;;;;;38.53;30.02;;;7.90;81.50;;;;;;5014342;28;20058;-92
2021/11/12 01:21:38;;;;;;;38.70;30.73;;;7.80;81.50;;;;;;5014579;28;20115;-92
2021/11/12 01:24:05;;;;;;;38.35;30.15;;;7.80;81.50;;;;;;5033919;28;20041;-93
2021/11/12 01:26:32;;;;;;;40.35;31.77;;;7.70;81.50;;;;;;5034123;28;20045;-94
2021/11/12 01:28:59;;;;;;;36.53;31.55;;;7.70;81.50;;;;;;5025486;28;20041;-93
2021/11/12 01:31:27;;;;;;;37.50;30.85;;;7.70;81.50;;;;;;5014030;28;20056;-93
2021/11/12 01:33:58;;;;;;;40.88;31.00;;;7.70;81.50;;;;;;5014393;28;20120;-92
2021/11/12 01:36:30;;;;;;;35.85;29.85;;;7.60;81.50;;;;;;5013893;28;20096;-93
2021/11/12 01:39:00;;;;;;;38.65;30.60;;;7.60;81.50;;;;;;5033295;28;20053;-93
2021/11/12 01:41:28;;;;;;;33.35;29.67;;;7.60;81.50;;;;;;5034091;28;20151;-93
2021/11/12 01:43:57;;;;;;;34.95;29.75;;;7.60;81.40;;;;;;5021770;28;20054;-93
2021/11/12 01:46:29;;;;;;;35.72;30.15;;;7.50;81.40;;;;;;5006516;28;20077;-93
2021/11/12 01:49:10;;;;;;;34.72;28.98;;;7.50;81.50;;;;;;5000243;28;20045;-93
2021/11/12 01:51:54;;;;;;;35.42;28.80;;;7.50;81.40;;;;;;5033000;28;20056;-93
2021/11/12 01:57:28;;;;;;;40.03;31.60;;;7.40;81.40;;;;;;5013764;28;20049;-92
2021/11/12 01:59:50;;;;;;;36.00;30.50;;;7.40;81.40;;;;;;5013304;28;20184;-93
2021/11/12 02:02:17;;;;;;;35.17;30.30;;;7.40;81.40;;;;;;5016940;28;20057;-92
2021/11/12 02:04:44;;;;;;;33.85;28.58;;;7.40;81.30;;;;;;5020125;28;20150;-92
2021/11/12 02:07:12;;;;;;;36.10;30.60;;;7.30;81.30;;;;;;5032903;28;20140;-94
2021/11/12 02:09:39;;;;;;;35.42;29.90;;;7.30;81.30;;;;;;5033239;28;20097;-93
2021/11/12 02:12:18;;;;;;;36.70;29.90;;;7.30;81.30;;;;;;5032447;28;20045;-93
2021/11/12 02:14:47;;;;;;;40.08;30.30;;;7.20;81.30;;;;;;5023246;28;20494;-92
2021/11/12 02:17:21;;;;;;;34.40;29.05;;;7.20;81.30;;;;;;5009146;28;20046;-93
2021/11/12 02:22:39;;;;;;;35.72;29.65;;;7.20;81.20;;;;;;5014096;28;20054;-93
2021/11/12 02:25:13;;;;;;;34.85;29.00;;;7.10;81.20;;;;;;5010319;28;20101;-93
2021/11/12 02:27:51;;;;;;;35.55;29.02;;;7.10;81.20;;;;;;5015667;28;20077;-93
2021/11/12 02:30:24;;;;;;;32.17;27.65;;;7.00;81.20;;;;;;5017350;28;20142;-92
2021/11/12 02:33:04;;;;;;;33.50;28.55;;;7.00;81.20;;;;;;5016906;28;20050;-93
2021/11/12 02:35:33;;;;;;;33.42;28.15;;;7.00;81.20;;;;;;5017369;28;20054;-93
2021/11/12 02:38:03;;;;;;;32.78;27.88;;;6.90;81.20;;;;;;5029068;28;20548;-95
2021/11/12 02:40:33;;;;;;;33.08;28.30;;;6.90;81.20;;;;;;5027924;28;20140;-93
2021/11/12 02:43:02;;;;;;;32.03;27.60;;;6.90;81.20;;;;;;5016199;28;20042;-93
2021/11/12 02:45:29;;;;;;;29.85;26.70;;;6.90;81.20;;;;;;5016562;28;20100;-92
2021/11/12 02:47:56;;;;;;;35.85;29.02;;;6.80;81.10;;;;;;4997316;28;20054;-93
2021/11/12 02:50:23;;;;;;;33.85;28.30;;;6.80;81.10;;;;;;5008411;28;20057;-92
2021/11/12 02:52:57;;;;;;;33.15;27.40;;;6.80;81.10;;;;;;5016865;28;20052;-91
2021/11/12 02:55:25;;;;;;;30.70;26.80;;;6.80;81.10;;;;;;5018928;28;20071;-93
2021/11/12 02:57:52;;;;;;;29.30;25.30;;;6.70;81.00;;;;;;5016932;28;20038;-93
2021/11/12 03:00:24;;;;;;;31.92;27.63;;;6.70;81.00;;;;;;5016786;28;20498;-92
2021/11/12 03:02:51;;;;;;;29.00;25.60;;;6.70;81.00;;;;;;5019507;28;20100;-93
2021/11/12 03:05:18;;;;;;;32.22;26.23;;;6.60;81.00;;;;;;5016588;28;20136;-93
2021/11/12 03:07:45;;;;;;;29.90;26.33;;;6.60;80.90;;;;;;5016709;28;20454;-92
2021/11/12 03:10:14;;;;;;;30.48;26.15;;;6.50;80.90;;;;;;5016570;28;20108;-93
2021/11/12 03:12:42;;;;;;;30.17;25.90;;;6.50;80.90;;;;;;5016946;28;20050;-94
2021/11/12 03:15:10;;;;;;;28.75;25.65;;;6.50;80.90;;;;;;5016666;28;20058;-92
2021/11/12 03:17:38;;;;;;;29.95;25.33;;;6.50;80.90;;;;;;4998892;28;20050;-93
2021/11/12 03:20:09;;;;;;;27.38;24.48;;;6.40;80.90;;;;;;5009949;28;20517;-93
2021/11/12 03:22:41;;;;;;;29.00;25.85;;;6.40;80.90;;;;;;5016603;28;20439;-93
2021/11/12 03:25:13;;;;;;;28.58;25.48;;;6.40;80.90;;;;;;5016380;28;20108;-93
2021/11/12 03:28:00;;;;;;;29.27;25.95;;;6.40;80.90;;;;;;5017266;28;20049;-92
2021/11/12 03:47:11;;;;;;;29.73;25.13;;;6.10;80.90;;;;;;5015563;28;20052;-93
2021/11/12 04:03:09;;;;;;;30.88;24.60;;;5.90;80.80;;;;;;5022115;28;20477;-93
2021/11/12 04:41:43;;;;;;;31.05;24.70;;;5.50;81.00;;;;;;4955103;29;20063;-93
2021/11/12 05:11:31;;;;;;;34.97;25.95;;;5.40;81.40;;;;;;4897428;29;20052;-92
2021/11/12 05:44:25;;;;;;;39.53;26.85;;;5.20;81.40;;;;;;5017478;28;20050;-92
2021/11/12 05:55:02;;;;;;;37.30;27.30;;;5.10;81.40;;;;;;4994990;28;20054;-92
2021/11/12 05:55:10;;;;;;;37.42;26.58;;;5.00;81.40;;;;;;4994722;28;20454;-93
2021/11/12 05:57:38;;;;;;;38.35;27.30;;;5.00;81.40;;;;;;4994305;28;20051;-94
2021/11/12 06:00:09;;;;;;;36.45;26.67;;;5.00;81.40;;;;;;4998607;28;20042;-93
2021/11/12 06:02:36;;;;;;;34.67;25.42;;;5.00;81.40;;;;;;5031772;28;20486;-93
2021/11/12 06:05:04;;;;;;;34.75;25.77;;;5.00;81.40;;;;;;5037883;28;20073;-92
2021/11/12 06:07:31;;;;;;;42.28;26.63;;;5.00;81.40;;;;;;5037384;28;20057;-91
2021/11/12 06:09:58;;;;;;;36.17;26.08;;;4.90;81.40;;;;;;5017958;28;20062;-92
2021/11/12 06:12:28;;;;;;;35.72;25.48;;;4.90;81.40;;;;;;5017790;28;20111;-93
2021/11/12 06:14:58;;;;;;;37.00;26.08;;;4.90;81.50;;;;;;5018074;28;20050;-94
2021/11/12 06:17:25;;;;;;;36.28;26.92;;;4.90;81.50;;;;;;5024783;28;20052;-94
2021/11/12 06:19:52;;;;;;;35.42;25.88;;;4.90;81.50;;;;;;5028041;28;20049;-94
2021/11/12 06:22:20;;;;;;;43.78;25.85;;;4.90;81.50;;;;;;5035096;28;20049;-95
2021/11/12 06:24:47;;;;;;;37.85;26.27;;;4.80;81.50;;;;;;5017809;28;20058;-88
2021/11/12 06:27:14;;;;;;;38.20;25.92;;;4.80;81.50;;;;;;5018213;28;20057;-93
2021/11/12 06:29:41;;;;;;;38.00;25.98;;;4.80;81.60;;;;;;5017898;28;20064;-92
2021/11/12 06:32:09;;;;;;;37.33;24.98;;;4.80;81.60;;;;;;5018013;28;20053;-93
2021/11/12 06:34:36;;;;;;;39.22;25.42;;;4.70;81.60;;;;;;5026299;28;20049;-93
2021/11/12 06:37:03;;;;;;;38.00;25.20;;;4.70;81.70;;;;;;5033438;28;20050;-93
2021/11/12 06:39:31;;;;;;;35.55;24.95;;;4.80;81.70;;;;;;5015696;28;20062;-94
2021/11/12 06:42:02;;;;;;;37.38;25.38;;;4.80;81.70;;;;;;5036278;28;20057;-93
2021/11/12 06:50:12;;;;;;;36.90;24.10;;;4.70;81.80;;;;;;5006245;28;20060;-92
2021/11/12 06:52:41;;;;;;;37.47;25.50;;;4.70;81.80;;;;;;5005622;28;20409;-93
2021/11/12 06:55:11;;;;;;;35.10;24.48;;;4.70;81.90;;;;;;5016547;28;20054;-92
2021/11/12 06:57:38;;;;;;;35.40;25.63;;;4.70;81.90;;;;;;4999934;28;20050;-91
2021/11/12 07:00:08;;;;;;;37.97;25.85;;;4.70;81.90;;;;;;5016884;28;20465;-92
2021/11/12 07:02:35;;;;;;;37.72;25.05;;;4.70;81.90;;;;;;5012319;28;20414;-92
2021/11/12 07:05:02;;;;;;;35.72;25.35;;;4.70;81.90;;;;;;5003940;28;20526;-92
2021/11/12 07:07:29;;;;;;;33.80;24.20;;;4.70;81.90;;;;;;5005275;28;20077;-92
2021/11/12 07:09:57;;;;;;;31.95;23.38;;;4.70;81.90;;;;;;5012973;28;20465;-91
2021/11/12 07:12:24;;;;;;;33.95;23.55;;;4.60;81.90;;;;;;4996010;28;20451;-92
2021/11/12 07:14:51;;;;;;;33.75;23.23;;;4.60;82.00;;;;;;5007125;28;20060;-90
2021/11/12 07:17:18;;;;;;;32.28;22.98;;;4.60;81.90;;;;;;5000796;28;20078;-93
2021/11/12 07:19:45;;;;;;;33.15;23.52;;;4.60;81.90;;;;;;5002537;28;20053;-92
2021/11/12 07:22:13;;;;;;;33.05;23.55;;;4.60;81.90;;;;;;5014936;28;20112;-92
2021/11/12 07:24:40;;;;;;;30.63;22.27;;;4.60;81.90;;;;;;5016332;28;20045;-95
2021/11/12 07:27:08;;;;;;;32.53;23.35;;;4.60;81.90;;;;;;4997155;28;20544;-94
2021/11/12 07:29:36;;;;;;;36.17;23.65;;;4.60;81.90;;;;;;5010953;28;20042;-94
2021/11/12 07:32:06;;;;;;;34.10;22.75;;;4.60;81.90;;;;;;5015826;28;20088;-93
2021/11/12 07:34:35;;;;;;;33.83;22.85;;;4.60;81.90;;;;;;5007157;28;20050;-95
2021/11/12 07:37:09;;;;;;;32.03;21.27;;;4.50;81.90;;;;;;5011152;28;20063;-92
2021/11/12 07:39:48;;;;;;;29.40;21.10;;;4.50;81.90;;;;;;4997402;28;20050;-93
2021/11/12 07:42:51;;;;;;;34.63;22.00;;;4.50;81.90;;;;;;5016076;28;20054;-92
2021/11/12 07:47:36;;;;;;;29.08;21.27;;;4.50;81.90;;;;;;4998685;28;20050;-93
2021/11/12 07:50:07;;;;;;;28.52;20.15;;;4.50;81.90;;;;;;4996114;28;20348;-94
2021/11/12 07:52:36;;;;;;;30.35;21.60;;;4.40;81.90;;;;;;5004466;28;20056;-92
2021/11/12 07:55:07;;;;;;;29.80;20.52;;;4.40;81.90;;;;;;5010573;28;20053;-92
2021/11/12 07:57:35;;;;;;;30.20;20.17;;;4.40;81.90;;;;;;4996477;28;20061;-92
2021/11/12 08:00:04;;;;;;;25.52;18.52;;;4.40;81.90;;;;;;4996251;28;20053;-92
2021/11/12 08:02:31;;;;;;;26.67;19.30;;;4.40;81.90;;;;;;4999933;28;20062;-92
2021/11/12 08:05:08;;;;;;;26.13;18.67;;;4.40;81.90;;;;;;4995899;28;20046;-92
2021/11/12 08:07:36;;;;;;;23.08;18.23;;;4.40;81.90;;;;;;4995357;28;20101;-93
2021/11/12 08:10:05;;;;;;;25.42;18.52;;;4.40;81.90;;;;;;4995410;28;20050;-92
2021/11/12 08:12:38;;;;;;;24.92;18.13;;;4.40;81.90;;;;;;4995849;28;20050;-91
2021/11/12 08:17:43;;;;;;;28.35;18.30;;;4.40;81.90;;;;;;4995480;28;20086;-93
2021/11/12 08:20:18;;;;;;;24.40;16.90;;;4.40;82.00;;;;;;5000031;28;20061;-94
2021/11/12 08:22:53;;;;;;;25.25;17.65;;;4.30;81.90;;;;;;5004231;28;20081;-92
2021/11/12 08:25:25;;;;;;;24.92;18.90;;;4.30;81.90;;;;;;5013600;28;20108;-92
2021/11/12 08:32:59;;;;;;;28.13;17.27;;;4.30;82.00;;;;;;4996009;28;20046;-92
2021/11/12 08:36:02;;;;;;;23.45;17.77;;;4.30;82.00;;;;;;4995476;28;20066;-91
2021/11/12 08:43:47;;;;;;;24.58;17.48;;;4.30;82.10;;;;;;5003909;28;20112;-93
2021/11/12 08:49:02;;;;;;;25.90;17.17;;;4.30;82.10;;;;;;4998862;28;20555;-93
2021/11/12 08:51:35;;;;;;;23.33;17.20;;;4.30;82.10;;;;;;5013802;28;20061;-93
2021/11/12 08:54:04;;;;;;;28.60;17.77;;;4.30;82.10;;;;;;5014707;28;20050;-93
2021/11/12 08:56:32;;;;;;;27.55;17.73;;;4.30;82.10;;;;;;5010484;28;20412;-92
2021/11/12 08:59:00;;;;;;;28.45;17.63;;;4.30;82.20;;;;;;5002736;28;20058;-92
2021/11/12 09:01:27;;;;;;;25.20;16.45;;;4.30;82.20;;;;;;4994453;28;20054;-93
2021/11/12 09:03:54;;;;;;;26.65;18.33;;;4.30;82.30;;;;;;4997889;28;20125;-92
2021/11/12 09:06:24;;;;;;;24.30;18.02;;;4.30;82.40;;;;;;5014221;28;20074;-93
2021/11/12 09:08:52;;;;;;;24.35;17.67;;;4.40;82.40;;;;;;5012371;28;20061;-93
2021/11/12 09:11:20;;;;;;;27.98;18.48;;;4.40;82.50;;;;;;4998622;28;20094;-92
2021/11/12 09:13:52;;;;;;;25.63;18.42;;;4.40;82.60;;;;;;5001707;28;20054;-93
2021/11/12 09:16:25;;;;;;;30.17;19.15;;;4.50;82.60;;;;;;5010343;28;20062;-92
2021/11/12 09:18:54;;;;;;;27.88;19.80;;;4.50;82.70;;;;;;4993788;28;20121;-91
2021/11/12 09:21:21;;;;;;;27.55;19.42;;;4.50;82.70;;;;;;4993821;28;20065;-92
2021/11/12 09:23:48;;;;;;;30.42;18.90;;;4.60;82.80;;;;;;4993783;28;20442;-92
2021/11/12 09:26:15;;;;;;;26.30;19.02;;;4.60;82.80;;;;;;5005045;28;20064;-92
2021/11/12 09:28:42;;;;;;;26.58;18.73;;;4.70;82.90;;;;;;5013479;28;20057;-92
2021/11/12 09:31:09;;;;;;;28.33;19.38;;;4.70;82.90;;;;;;5013393;28;20053;-93
2021/11/12 09:33:38;;;;;;;26.23;19.38;;;4.80;82.90;;;;;;5013119;28;20054;-93
2021/11/12 09:36:09;;;;;;;27.52;18.85;;;4.80;82.90;;;;;;5013361;28;20058;-93
2021/11/12 09:38:38;;;;;;;31.02;19.45;;;4.90;82.90;;;;;;5013304;28;20058;-93
2021/11/12 09:41:07;;;;;;;27.25;19.80;;;4.90;82.90;;;;;;5000036;28;20050;-93
2021/11/12 09:43:35;;;;;;;28.85;21.30;;;5.00;83.00;;;;;;4998906;28;20054;-94
2021/11/12 09:46:04;;;;;;;32.75;21.65;;;5.10;82.90;;;;;;4995518;28;20058;-93
2021/11/12 09:48:31;;;;;;;27.17;19.25;;;5.20;82.90;;;;;;5010512;28;20145;-91
2021/11/12 09:50:58;;;;;;;29.35;19.77;;;5.30;82.80;;;;;;4992904;28;20058;-91
2021/11/12 09:53:25;;;;;;;24.90;17.88;;;5.40;82.80;;;;;;5003033;28;20053;-90
2021/11/12 09:55:54;;;;;;;28.48;19.33;;;5.50;82.60;;;;;;5002100;28;20050;-93
2021/11/12 09:58:22;;;;;;;27.63;19.40;;;5.70;82.50;;;;;;4994175;28;20058;-93
2021/11/12 10:00:55;;;;;;;24.70;17.02;;;5.80;82.40;;;;;;4993658;28;20097;-90
2021/11/12 10:03:31;;;;;;;26.20;18.52;;;5.90;82.20;;;;;;4993854;28;20050;-89
2021/11/12 10:05:58;;;;;;;25.60;17.33;;;6.10;82.00;;;;;;5007639;28;20050;-94
2021/11/12 10:08:37;;;;;;;24.15;17.77;;;6.30;81.80;;;;;;4999248;28;20054;-95
2021/11/12 10:11:14;;;;;;;26.30;18.55;;;6.40;81.60;;;;;;5008507;28;20447;-95
2021/11/12 10:13:45;;;;;;;28.90;19.25;;;6.70;81.30;;;;;;5005274;28;20061;-95
2021/11/12 10:19:06;;;;;;;22.60;17.40;;;7.00;80.90;;;;;;5012044;28;20054;-94
2021/11/12 10:21:46;;;;;;;25.83;18.20;;;7.20;80.60;;;;;;4994883;28;20051;-92
2021/11/12 10:24:27;;;;;;;23.27;17.42;;;7.40;80.40;;;;;;4994567;28;20050;-92
2021/11/12 10:27:07;;;;;;;27.42;18.30;;;7.50;80.10;;;;;;4995113;28;20441;-93
2021/11/12 10:29:44;;;;;;;23.02;16.23;;;7.70;79.70;;;;;;5007074;28;20051;-92
2021/11/12 10:32:19;;;;;;;23.58;16.38;;;7.80;79.40;;;;;;4994029;28;20054;-93
2021/11/12 10:34:48;;;;;;;29.17;18.23;;;7.90;79.00;;;;;;5003854;28;20053;-95
2021/11/12 10:37:20;;;;;;;26.38;18.02;;;8.00;78.70;;;;;;5014159;28;20050;-95
2021/11/12 10:39:49;;;;;;;26.48;18.60;;;8.10;78.40;;;;;;5013524;28;20046;-94
2021/11/12 10:42:21;;;;;;;25.48;18.20;;;8.20;78.10;;;;;;5014686;28;20046;-93
2021/11/12 10:45:07;;;;;;;22.48;17.63;;;8.30;77.90;;;;;;5014590;28;20391;-94
2021/11/12 10:47:35;;;;;;;25.02;16.40;;;8.40;77.60;;;;;;5016856;28;20085;-92
2021/11/12 10:50:07;;;;;;;20.30;15.85;;;8.40;77.40;;;;;;5013580;28;20050;-92
2021/11/12 10:52:35;;;;;;;19.50;15.52;;;8.50;77.20;;;;;;4997669;28;20042;-92
2021/11/12 10:55:17;;;;;;;20.02;15.32;;;8.50;77.00;;;;;;5001450;28;20457;-93
2021/11/12 10:58:11;;;;;;;21.17;16.40;;;8.60;76.80;;;;;;4999978;28;20050;-93
2021/11/12 11:00:48;;;;;;;21.65;16.00;;;8.60;76.70;;;;;;5015096;28;20054;-92
2021/11/12 11:03:20;;;;;;;21.00;14.90;;;8.60;76.60;;;;;;4997841;28;20057;-94
2021/11/12 11:05:58;;;;;;;20.17;16.35;;;8.60;76.50;;;;;;4998369;28;20082;-91
2021/11/12 11:08:29;;;;;;;22.98;15.90;;;8.70;76.50;;;;;;5014334;28;20057;-93
2021/11/12 11:11:02;;;;;;;20.33;15.15;;;8.70;76.40;;;;;;5016626;28;20050;-93
2021/11/12 11:13:43;;;;;;;21.25;15.40;;;8.70;76.30;;;;;;5016844;28;20533;-92
2021/11/12 11:16:18;;;;;;;25.10;15.73;;;8.80;76.20;;;;;;5010794;28;20050;-93
2021/11/12 11:18:51;;;;;;;23.52;15.10;;;8.80;76.10;;;;;;5000043;28;20046;-91
2021/11/12 11:23:46;;;;;;;21.15;16.08;;;8.80;76.00;;;;;;5007084;28;20046;-93
2021/11/12 11:26:19;;;;;;;23.38;15.68;;;8.80;76.00;;;;;;5005247;28;20065;-92
2021/11/12 11:28:48;;;;;;;26.27;16.70;;;8.80;76.00;;;;;;5000793;28;20046;-93
2021/11/12 11:31:17;;;;;;;20.25;15.40;;;8.80;76.00;;;;;;5004119;28;20058;-93
2021/11/12 11:33:46;;;;;;;19.15;14.73;;;8.80;76.00;;;;;;4998628;28;20050;-92
2021/11/12 11:36:19;;;;;;;21.02;14.75;;;8.90;76.00;;;;;;4996818;28;20112;-90
2021/11/12 11:38:48;;;;;;;19.00;15.35;;;8.90;76.00;;;;;;5008604;28;20074;-89
2021/11/12 11:41:18;;;;;;;19.92;15.23;;;8.90;76.00;;;;;;5010111;28;20054;-90
2021/11/12 11:43:46;;;;;;;22.15;15.55;;;8.90;76.10;;;;;;5004846;28;20050;-90
2021/11/12 11:46:23;;;;;;;20.60;15.90;;;8.90;76.10;;;;;;4997391;28;20058;-91
2021/11/12 11:48:52;;;;;;;20.80;15.32;;;8.90;76.10;;;;;;5015309;28;20092;-92
2021/11/12 11:51:32;;;;;;;21.23;15.63;;;8.90;76.10;;;;;;5001027;28;20392;-94
2021/11/12 11:54:11;;;;;;;19.55;14.55;;;9.00;76.10;;;;;;4996070;28;20487;-92
2021/11/12 11:56:43;;;;;;;17.55;14.43;;;9.00;76.10;;;;;;5013599;28;20107;-92
2021/11/12 11:59:24;;;;;;;18.65;14.25;;;9.00;76.00;;;;;;5009944;28;20054;-94
2021/11/12 12:01:54;;;;;;;20.23;14.88;;;9.00;76.00;;;;;;4997269;28;20054;-92
2021/11/12 12:04:24;;;;;;;19.75;15.02;;;9.00;76.00;;;;;;5014387;28;20054;-93
2021/11/12 12:07:04;;;;;;;18.77;13.77;;;9.00;76.00;;;;;;5015458;28;20112;-91
2021/11/12 12:10:00;;;;;;;20.05;14.70;;;9.00;76.00;;;;;;5014879;28;20502;-92
2021/11/12 12:12:29;;;;;;;18.90;13.60;;;9.10;76.10;;;;;;4995990;28;20105;-92
2021/11/12 12:15:06;;;;;;;22.15;14.38;;;9.10;76.10;;;;;;4996145;28;20503;-89
2021/11/12 12:17:36;;;;;;;19.50;14.95;;;9.10;76.10;;;;;;5004259;28;20053;-90
2021/11/12 12:20:18;;;;;;;20.58;14.18;;;9.10;76.10;;;;;;5001268;28;20043;-90
2021/11/12 12:31:21;;;;;;;16.65;13.05;;;9.20;76.20;;;;;;4993690;28;20045;-83
2021/11/12 13:25:44;;;;;;;17.80;12.20;;;10.50;74.60;;;;;;4995509;28;20304;-85
2021/11/12 13:28:22;;;;;;;18.15;13.02;;;10.50;74.50;;;;;;4993284;28;20053;-86
2021/11/12 13:31:02;;;;;;;21.60;13.60;;;10.50;74.40;;;;;;4992736;28;20497;-85
2021/11/12 13:33:36;;;;;;;22.80;15.35;;;10.50;74.30;;;;;;5006928;28;20058;-85
2021/11/12 13:36:05;;;;;;;15.45;12.73;;;10.60;74.20;;;;;;5005788;28;20053;-85
2021/11/12 13:38:41;;;;;;;17.60;13.27;;;10.60;74.10;;;;;;4998363;28;20054;-87
2021/11/12 13:41:11;;;;;;;22.42;14.65;;;10.70;74.00;;;;;;4995141;28;20054;-86
2021/11/12 13:43:40;;;;;;;20.27;14.40;;;10.70;73.90;;;;;;4995779;28;20475;-87
2021/11/12 13:46:08;;;;;;;17.02;13.13;;;10.70;73.80;;;;;;4992508;28;20046;-85
2021/11/12 13:48:46;;;;;;;18.50;14.05;;;10.80;73.70;;;;;;4993881;28;20082;-86
2021/11/12 13:51:17;;;;;;;19.33;14.27;;;10.80;73.60;;;;;;4995551;28;20050;-86
2021/11/12 13:53:47;;;;;;;20.13;14.02;;;10.80;73.60;;;;;;4995825;28;20058;-86
2021/11/12 13:56:15;;;;;;;18.20;13.27;;;10.90;73.50;;;;;;4998233;28;20054;-86
2021/11/12 13:58:43;;;;;;;17.67;13.40;;;10.80;73.40;;;;;;5005088;28;20053;-87
2021/11/12 14:01:20;;;;;;;20.85;14.48;;;10.90;73.40;;;;;;4992949;28;20054;-85
2021/11/12 14:03:49;;;;;;;19.60;13.55;;;10.90;73.30;;;;;;5007161;28;20053;-87
2021/11/12 14:06:18;;;;;;;18.55;13.50;;;10.90;73.20;;;;;;4995452;28;20054;-87
2021/11/12 14:08:48;;;;;;;18.63;13.10;;;10.90;73.20;;;;;;5002522;28;20104;-86
2021/11/12 14:11:27;;;;;;;19.85;14.65;;;10.90;73.20;;;;;;5003616;28;20053;-86
2021/11/12 14:13:57;;;;;;;20.80;14.40;;;10.80;73.20;;;;;;5003683;28;20050;-86
2021/11/12 14:16:51;;;;;;;16.58;13.50;;;10.80;73.10;;;;;;4994436;28;20089;-86
2021/11/12 14:21:59;;;;;;;17.25;13.20;;;10.80;73.10;;;;;;4995905;28;21183;-85
2021/11/12 14:36:25;;;;;;;19.55;14.77;;;10.60;73.50;;;;;;4944343;28;20052;-86
2021/11/12 14:39:00;;;;;;;19.98;14.98;;;10.50;73.60;;;;;;4935119;29;20056;-86
2021/11/12 14:41:56;;;;;;;18.83;14.82;;;10.50;73.60;;;;;;4944879;28;20085;-85
2021/11/12 14:52:02;;;;;;;16.75;14.32;;;10.40;74.10;;;;;;4939616;28;20143;-86
2021/11/12 14:54:53;;;;;;;19.23;15.52;;;10.30;74.20;;;;;;4955713;28;20096;-85
2021/11/12 15:00:01;;;;;;;20.10;14.88;;;10.30;74.40;;;;;;4950265;28;20054;-86
2021/11/12 15:02:30;;;;;;;18.60;14.60;;;10.20;74.50;;;;;;4947869;28;20055;-86
2021/11/12 15:04:57;;;;;;;19.00;14.05;;;10.20;74.60;;;;;;4979205;28;20598;-85
2021/11/12 15:07:28;;;;;;;19.25;14.60;;;10.20;74.70;;;;;;4997441;28;20045;-87
2021/11/12 15:09:56;;;;;;;18.05;14.27;;;10.10;74.80;;;;;;4993912;28;20050;-85
2021/11/12 15:12:24;;;;;;;19.77;15.80;;;10.10;74.90;;;;;;5009211;28;20050;-85
2021/11/12 15:14:56;;;;;;;18.55;13.93;;;10.10;75.00;;;;;;5006599;28;20057;-86
2021/11/12 15:17:24;;;;;;;22.42;14.85;;;10.10;75.10;;;;;;5002381;28;20062;-86
2021/11/12 15:19:51;;;;;;;19.52;14.10;;;10.00;75.10;;;;;;4997945;28;20053;-85
2021/11/12 15:30:09;;;;;;;19.75;15.35;;;10.00;75.50;;;;;;4998517;28;20116;-86
2021/11/12 15:32:37;;;;;;;26.08;17.15;;;10.00;75.50;;;;;;5003101;28;20465;-86
2021/11/12 15:48:08;;;;;;;25.33;18.02;;;9.90;75.80;;;;;;5007276;28;20056;-87
2021/11/12 15:53:30;;;;;;;24.17;17.17;;;9.90;75.90;;;;;;5001989;28;20457;-85
2021/11/12 16:01:22;;;;;;;24.05;17.98;;;9.90;76.10;;;;;;4993902;28;20058;-85
2021/11/12 16:03:57;;;;;;;26.15;17.40;;;9.90;76.20;;;;;;5008017;28;20139;-87
2021/11/12 16:06:46;;;;;;;23.83;17.58;;;9.90;76.30;;;;;;5007554;28;20054;-88
2021/11/12 16:09:23;;;;;;;23.83;18.15;;;9.90;76.30;;;;;;4996906;28;20511;-88
2021/11/12 16:12:05;;;;;;;27.52;17.95;;;9.90;76.50;;;;;;5009383;28;20050;-87
2021/11/12 16:19:36;;;;;;;26.45;18.20;;;9.80;76.60;;;;;;5007743;28;20384;-87
2021/11/12 16:25:02;;;;;;;25.27;18.00;;;9.80;76.70;;;;;;5008485;28;20057;-86
2021/11/12 16:27:32;;;;;;;22.08;17.52;;;9.80;76.80;;;;;;5006883;28;20076;-87
2021/11/12 16:30:05;;;;;;;24.60;18.13;;;9.80;76.80;;;;;;5006240;28;20080;-87
2021/11/12 16:32:48;;;;;;;24.35;17.70;;;9.80;76.90;;;;;;5005100;28;20056;-86
2021/11/12 16:35:21;;;;;;;22.75;17.25;;;9.70;76.90;;;;;;5004310;28;20584;-87
2021/11/12 16:37:56;;;;;;;23.02;18.17;;;9.70;76.90;;;;;;5005707;28;20050;-86
2021/11/12 16:40:28;;;;;;;25.00;17.98;;;9.80;77.00;;;;;;4995546;28;20445;-86
2021/11/12 16:59:06;;;;;;;23.98;18.17;;;9.70;77.40;;;;;;4939768;28;20047;-87
2021/11/12 17:20:51;;;;;;;27.17;19.67;;;9.70;77.80;;;;;;4929946;29;20110;-88
2021/11/12 17:45:46;;;;;;;29.58;19.15;;;9.70;78.20;;;;;;4995657;28;20050;-88
2021/11/12 17:48:12;;;;;;;26.42;18.88;;;9.70;78.30;;;;;;4990877;28;20050;-87
2021/11/12 18:02:10;;;;;;;24.90;19.25;;;9.70;78.60;;;;;;4911518;29;20040;-87
2021/11/12 18:13:08;;;;;;;24.40;18.42;;;9.80;78.80;;;;;;4912629;29;20044;-87
2021/11/12 18:21:29;;;;;;;25.70;20.30;;;9.80;79.00;;;;;;4911259;29;20214;-87
2021/11/12 21:48:33;;;;;;;22.23;9.90;;;10.40;83.30;;;;;;5007582;28;20074;-86
2021/11/12 21:51:01;;;;;;;18.90;8.98;;;10.40;83.30;;;;;;4997394;28;20051;-87
2021/11/12 21:53:29;;;;;;;18.95;9.30;;;10.50;83.30;;;;;;4996618;28;20462;-87
2021/11/12 21:55:58;;;;;;;21.05;10.38;;;10.50;83.30;;;;;;4996750;28;20079;-86
2021/11/12 21:58:27;;;;;;;16.65;8.52;;;10.50;83.30;;;;;;4993829;28;20450;-87
2021/11/12 22:00:57;;;;;;;23.40;9.73;;;10.50;83.30;;;;;;5007861;28;20050;-86
2021/11/12 22:03:27;;;;;;;17.67;9.13;;;10.50;83.30;;;;;;5007460;28;20050;-87
2021/11/12 22:05:55;;;;;;;16.30;8.55;;;10.50;83.30;;;;;;5004930;28;20061;-87
2021/11/12 22:08:23;;;;;;;16.42;8.77;;;10.50;83.20;;;;;;5004202;28;20107;-87
2021/11/12 22:10:50;;;;;;;14.77;8.55;;;10.60;83.20;;;;;;5004971;28;20045;-87
2021/11/12 22:13:17;;;;;;;21.77;9.13;;;10.60;83.10;;;;;;4993864;28;20050;-87
2021/11/12 22:15:44;;;;;;;21.00;8.95;;;10.60;83.10;;;;;;5008219;28;20100;-88
2021/11/12 22:18:11;;;;;;;17.50;9.35;;;10.60;83.10;;;;;;5005502;28;20049;-87
2021/11/12 22:20:39;;;;;;;16.55;8.20;;;10.60;83.10;;;;;;4999220;28;20054;-87
2021/11/12 22:23:06;;;;;;;23.23;8.93;;;10.60;83.10;;;;;;4993352;28;20054;-87
2021/11/12 22:25:35;;;;;;;25.13;9.13;;;10.60;83.10;;;;;;5004541;28;20476;-88
2021/11/12 22:28:02;;;;;;;25.77;9.15;;;10.60;83.20;;;;;;5007677;28;20076;-86
2021/11/12 22:30:30;;;;;;;20.55;8.45;;;10.60;83.20;;;;;;4996360;28;20050;-87
2021/11/12 22:32:57;;;;;;;27.60;8.65;;;10.60;83.30;;;;;;4991402;28;20507;-87
2021/11/12 22:35:24;;;;;;;20.27;8.55;;;10.60;83.40;;;;;;4995388;28;20050;-88
2021/11/12 22:37:51;;;;;;;25.23;8.20;;;10.70;83.40;;;;;;4991904;28;20454;-87
2021/11/12 22:40:19;;;;;;;20.67;9.27;;;10.70;83.50;;;;;;4994364;28;20046;-86
2021/11/12 22:42:47;;;;;;;17.75;8.02;;;10.70;83.50;;;;;;4996547;28;20061;-87
2021/11/12 22:45:16;;;;;;;20.80;8.98;;;10.60;83.60;;;;;;5009715;28;20057;-89
2021/11/12 22:47:44;;;;;;;25.27;9.52;;;10.70;83.60;;;;;;5006400;28;20050;-89
2021/11/12 22:50:12;;;;;;;24.00;9.35;;;10.70;83.60;;;;;;5008375;28;20392;-87
2021/11/12 22:52:40;;;;;;;28.92;9.10;;;10.70;83.60;;;;;;5006775;28;20046;-88
2021/11/12 22:55:07;;;;;;;22.58;8.57;;;10.70;83.50;;;;;;5009243;28;20039;-87